createdAt,value
2023-02-19T00:01:38.860Z,1.70
2023-02-19T00:04:29.135Z,1.97
2023-02-19T00:06:56.964Z,1.87
2023-02-19T00:09:24.348Z,2.30
2023-02-19T00:11:51.905Z,2.87
2023-02-19T00:14:20.966Z,2.23
2023-02-19T00:16:48.677Z,2.07
2023-02-19T00:19:18.182Z,3.27
2023-02-19T00:21:45.630Z,2.50
2023-02-19T00:24:13.821Z,3.37
2023-02-19T00:26:42.748Z,2.97
2023-02-19T00:29:14.443Z,2.73
2023-02-19T00:31:41.996Z,3.17
2023-02-19T00:34:10.783Z,2.37
2023-02-19T00:36:38.901Z,2.40
2023-02-19T00:39:07.528Z,2.50
2023-02-19T00:41:35.260Z,2.40
2023-02-19T00:44:04.833Z,2.17
2023-02-19T00:46:34.664Z,2.73
2023-02-19T00:49:02.719Z,2.43
2023-02-19T00:51:32.186Z,2.13
2023-02-19T00:53:59.469Z,1.73
2023-02-19T00:56:26.827Z,2.00
2023-02-19T00:58:54.190Z,1.83
2023-02-19T01:01:21.936Z,2.10
2023-02-19T01:03:49.385Z,1.90
2023-02-19T01:06:18.345Z,1.60
2023-02-19T01:08:46.121Z,2.23
2023-02-19T01:11:14.571Z,1.50
2023-02-19T01:13:42.002Z,2.30
2023-02-19T01:16:20.923Z,1.40
2023-02-19T01:18:49.071Z,1.40
2023-02-19T01:21:26.877Z,1.53
2023-02-19T01:23:54.902Z,1.47
2023-02-19T01:26:27.442Z,1.93
2023-02-19T01:28:55.088Z,1.30
2023-02-19T01:31:24.185Z,1.20
2023-02-19T01:33:56.643Z,1.30
2023-02-19T01:36:23.935Z,1.30
2023-02-19T01:38:51.470Z,1.23
2023-02-19T01:41:27.931Z,1.30
2023-02-19T01:44:08.310Z,1.20
2023-02-19T01:46:36.509Z,1.30
2023-02-19T01:49:09.162Z,1.27
2023-02-19T01:51:38.641Z,1.20
2023-02-19T01:54:07.240Z,1.47
2023-02-19T01:56:35.304Z,0.80
2023-02-19T01:59:02.775Z,1.13
2023-02-19T02:01:30.617Z,0.90
2023-02-19T02:03:58.378Z,0.90
2023-02-19T02:06:29.079Z,0.63
2023-02-19T02:09:15.784Z,0.70
2023-02-19T02:11:51.407Z,0.80
2023-02-19T02:14:20.420Z,0.70
2023-02-19T02:17:06.350Z,0.60
2023-02-19T02:19:55.161Z,0.50
2023-02-19T02:22:47.354Z,0.70
2023-02-19T02:25:37.015Z,0.60
2023-02-19T02:28:23.867Z,0.83
2023-02-19T02:30:53.509Z,0.40
2023-02-19T02:33:29.416Z,0.50
2023-02-19T02:36:02.114Z,0.50
2023-02-19T02:38:31.608Z,0.50
2023-02-19T02:40:59.207Z,0.50
2023-02-19T02:43:26.818Z,0.60
2023-02-19T02:45:54.825Z,0.50
2023-02-19T02:48:40.038Z,0.40
2023-02-19T02:51:14.042Z,0.70
2023-02-19T02:54:13.074Z,0.50
2023-02-19T02:56:41.766Z,0.50
2023-02-19T02:59:10.671Z,0.40
2023-02-19T03:02:01.307Z,0.90
2023-02-19T03:04:34.724Z,0.40
2023-02-19T03:07:06.380Z,0.60
2023-02-19T03:09:40.915Z,0.83
2023-02-19T03:12:34.274Z,0.90
2023-02-19T03:15:22.381Z,1.40
2023-02-19T03:18:10.410Z,3.00
2023-02-19T03:20:39.569Z,1.70
2023-02-19T03:23:08.033Z,1.90
2023-02-19T03:25:54.342Z,2.30
2023-02-19T03:28:42.591Z,2.40
2023-02-19T03:31:12.263Z,2.80
2023-02-19T03:33:41.068Z,3.23
2023-02-19T03:36:09.036Z,4.13
2023-02-19T03:38:49.273Z,3.33
2023-02-19T03:41:34.270Z,4.60
2023-02-19T03:44:35.301Z,4.13
2023-02-19T03:47:07.067Z,4.13
2023-02-19T03:50:09.927Z,5.27
2023-02-19T03:52:45.296Z,6.63
2023-02-19T03:55:22.009Z,5.20
2023-02-19T03:57:54.926Z,5.17
2023-02-19T04:00:40.127Z,5.03
2023-02-19T04:03:46.988Z,5.70
2023-02-19T04:06:30.312Z,8.83
2023-02-19T04:09:00.315Z,5.83
2023-02-19T04:11:28.155Z,5.70
2023-02-19T04:14:22.850Z,10.10
2023-02-19T04:16:52.618Z,6.23
2023-02-19T04:19:21.204Z,5.77
2023-02-19T04:21:49.048Z,5.30
2023-02-19T04:24:31.588Z,6.10
2023-02-19T04:26:59.212Z,6.77
2023-02-19T04:29:26.659Z,5.80
2023-02-19T04:31:54.329Z,4.97
2023-02-19T04:34:22.136Z,7.20
2023-02-19T04:36:49.822Z,4.97
2023-02-19T04:39:17.221Z,5.27
2023-02-19T04:41:44.768Z,5.70
2023-02-19T04:44:12.388Z,5.70
2023-02-19T04:46:43.065Z,5.47
2023-02-19T04:49:10.707Z,4.73
2023-02-19T04:51:38.759Z,6.33
2023-02-19T04:54:06.400Z,5.10
2023-02-19T04:56:33.836Z,5.77
2023-02-19T04:59:01.088Z,6.73
2023-02-19T05:01:28.812Z,4.87
2023-02-19T05:03:56.457Z,4.63
2023-02-19T05:06:23.866Z,6.07
2023-02-19T05:08:51.491Z,5.77
2023-02-19T05:11:19.201Z,9.07
2023-02-19T05:13:46.877Z,13.07
2023-02-19T05:16:16.451Z,9.57
2023-02-19T05:18:45.164Z,6.77
2023-02-19T05:21:13.119Z,4.90
2023-02-19T05:23:40.931Z,6.40
2023-02-19T05:26:19.228Z,5.10
2023-02-19T05:28:47.275Z,5.00
2023-02-19T05:31:15.139Z,5.63
2023-02-19T05:33:49.661Z,6.77
2023-02-19T05:36:17.418Z,4.67
2023-02-19T05:38:45.063Z,4.90
2023-02-19T05:41:21.712Z,4.97
2023-02-19T05:43:49.398Z,5.30
2023-02-19T05:46:20.225Z,5.57
2023-02-19T05:48:48.720Z,5.20
2023-02-19T05:51:18.060Z,4.80
2023-02-19T05:53:45.611Z,5.77
2023-02-19T05:56:21.635Z,4.30
2023-02-19T05:58:48.892Z,4.17
2023-02-19T06:01:22.634Z,3.30
2023-02-19T06:03:50.398Z,4.50
2023-02-19T06:06:19.067Z,4.27
2023-02-19T06:08:46.714Z,4.73
2023-02-19T06:11:14.017Z,2.83
2023-02-19T06:13:41.173Z,3.57
2023-02-19T06:16:09.246Z,4.80
2023-02-19T06:18:37.145Z,3.87
2023-02-19T06:21:09.893Z,3.03
2023-02-19T06:23:37.962Z,4.63
2023-02-19T06:26:19.336Z,2.83
2023-02-19T06:28:47.892Z,3.30
2023-02-19T06:31:15.704Z,3.90
2023-02-19T06:33:43.486Z,5.03
2023-02-19T06:36:16.758Z,4.27
2023-02-19T06:38:44.850Z,4.30
2023-02-19T06:41:12.946Z,4.07
2023-02-19T06:43:40.756Z,3.87
2023-02-19T06:46:08.522Z,4.07
2023-02-19T06:48:36.188Z,3.87
2023-02-19T06:51:03.943Z,4.00
2023-02-19T06:53:31.347Z,4.30
2023-02-19T06:56:03.146Z,3.30
2023-02-19T06:58:31.020Z,3.43
2023-02-19T07:00:58.696Z,3.10
2023-02-19T07:03:27.161Z,4.97
2023-02-19T07:05:54.629Z,4.03
2023-02-19T07:08:22.348Z,2.97
2023-02-19T07:10:57.284Z,3.20
2023-02-19T07:13:25.404Z,2.97
2023-02-19T07:15:52.975Z,2.80
2023-02-19T07:18:20.254Z,3.20
2023-02-19T07:20:48.311Z,3.63
2023-02-19T07:23:15.740Z,2.33
2023-02-19T07:25:43.122Z,2.60
2023-02-19T07:28:10.796Z,2.37
2023-02-19T07:30:38.436Z,3.27
2023-02-19T07:33:06.075Z,3.00
2023-02-19T07:35:33.871Z,2.73
2023-02-19T07:38:01.272Z,2.57
2023-02-19T07:40:28.785Z,2.27
2023-02-19T07:42:56.672Z,2.40
2023-02-19T07:45:24.186Z,3.03
2023-02-19T07:47:51.701Z,2.40
2023-02-19T07:50:19.079Z,2.13
2023-02-19T07:52:46.513Z,2.60
2023-02-19T07:55:14.182Z,2.90
2023-02-19T07:57:41.778Z,1.83
2023-02-19T08:00:09.825Z,2.97
2023-02-19T08:02:55.766Z,1.93
2023-02-19T08:05:23.350Z,1.77
2023-02-19T08:07:50.708Z,1.90
2023-02-19T08:10:36.751Z,1.10
2023-02-19T08:13:22.993Z,1.17
2023-02-19T08:16:26.695Z,1.80
2023-02-19T08:18:57.583Z,2.83
2023-02-19T08:21:25.104Z,0.60
2023-02-19T08:23:52.522Z,1.10
2023-02-19T08:26:20.045Z,0.80
2023-02-19T08:28:48.238Z,0.70
2023-02-19T08:31:16.052Z,0.70
2023-02-19T08:33:43.965Z,0.70
2023-02-19T08:36:11.912Z,1.40
2023-02-19T08:38:39.342Z,1.33
2023-02-19T08:41:09.705Z,1.43
2023-02-19T08:43:37.743Z,1.53
2023-02-19T08:46:06.284Z,1.33
2023-02-19T08:48:34.150Z,1.30
2023-02-19T08:51:07.344Z,2.07
2023-02-19T08:53:35.208Z,1.07
2023-02-19T08:56:10.711Z,3.23
2023-02-19T08:58:38.458Z,1.40
2023-02-19T09:01:13.771Z,2.57
2023-02-19T09:03:41.619Z,1.30
2023-02-19T09:06:11.889Z,1.63
2023-02-19T09:08:39.439Z,1.63
2023-02-19T09:11:07.602Z,1.67
2023-02-19T09:13:35.006Z,6.63
2023-02-19T09:16:06.778Z,1.50
2023-02-19T09:18:34.419Z,1.83
2023-02-19T09:21:02.908Z,2.60
2023-02-19T09:23:30.581Z,1.70
2023-02-19T09:26:01.586Z,3.50
2023-02-19T09:28:28.997Z,1.27
2023-02-19T09:30:56.537Z,1.47
2023-02-19T09:33:24.072Z,1.23
2023-02-19T09:35:51.678Z,1.40
2023-02-19T09:38:19.034Z,1.07
2023-02-19T09:40:46.552Z,3.17
2023-02-19T09:43:17.564Z,1.30
2023-02-19T09:45:44.982Z,1.10
2023-02-19T09:48:12.973Z,1.20
2023-02-19T09:50:44.629Z,1.17
2023-02-19T09:53:18.064Z,1.30
2023-02-19T09:55:45.317Z,1.57
2023-02-19T09:58:18.707Z,1.00
2023-02-19T10:00:46.547Z,1.57
2023-02-19T10:03:24.021Z,1.10
2023-02-19T10:05:52.420Z,2.10
2023-02-19T10:08:21.683Z,1.47
2023-02-19T10:10:49.159Z,1.50
2023-02-19T10:13:39.256Z,1.50
2023-02-19T10:16:07.865Z,0.80
2023-02-19T10:18:42.642Z,1.80
2023-02-19T10:21:26.620Z,1.50
2023-02-19T10:23:58.454Z,1.77
2023-02-19T10:26:26.032Z,1.73
2023-02-19T10:28:54.702Z,1.30
2023-02-19T10:31:24.183Z,1.03
2023-02-19T10:33:58.818Z,1.47
2023-02-19T10:36:32.567Z,1.10
2023-02-19T10:39:01.470Z,1.97
2023-02-19T10:41:29.018Z,1.37
2023-02-19T10:44:17.185Z,1.00
2023-02-19T10:46:55.875Z,0.70
2023-02-19T10:49:49.905Z,1.10
2023-02-19T10:52:27.655Z,2.13
2023-02-19T10:55:23.901Z,2.27
2023-02-19T10:57:51.342Z,3.47
2023-02-19T11:00:31.098Z,2.93
2023-02-19T11:03:34.074Z,2.30
2023-02-19T11:06:03.494Z,1.10
2023-02-19T11:08:31.594Z,2.53
2023-02-19T11:10:59.343Z,2.43
2023-02-19T11:13:32.674Z,4.93
2023-02-19T11:16:00.217Z,0.73
2023-02-19T11:18:29.357Z,1.47
2023-02-19T11:21:01.462Z,2.03
2023-02-19T11:23:31.334Z,0.67
2023-02-19T11:26:01.170Z,2.27
2023-02-19T11:28:35.778Z,0.57
2023-02-19T11:31:24.927Z,1.43
2023-02-19T11:33:57.823Z,11.63
2023-02-19T11:36:35.516Z,4.57
2023-02-19T11:39:09.370Z,0.70
2023-02-19T11:42:09.205Z,3.70
2023-02-19T11:45:02.053Z,1.57
2023-02-19T11:48:00.099Z,0.43
2023-02-19T11:50:45.696Z,0.63
2023-02-19T11:53:30.091Z,1.73
2023-02-19T11:56:08.640Z,2.27
2023-02-19T11:58:58.518Z,1.13
2023-02-19T12:01:59.481Z,2.00
2023-02-19T12:05:03.594Z,1.40
2023-02-19T12:08:11.109Z,1.47
2023-02-19T12:10:51.625Z,0.80
2023-02-19T12:13:33.781Z,1.37
2023-02-19T12:16:28.038Z,1.00
2023-02-19T12:18:59.523Z,5.63
2023-02-19T12:21:48.017Z,2.10
2023-02-19T12:24:45.891Z,1.93
2023-02-19T12:27:21.819Z,3.83
2023-02-19T12:30:08.961Z,2.20
2023-02-19T12:32:45.353Z,2.60
2023-02-19T12:35:38.862Z,1.90
2023-02-19T12:38:40.068Z,1.43
2023-02-19T12:41:26.232Z,2.80
2023-02-19T12:44:35.298Z,1.53
2023-02-19T12:47:02.746Z,2.87
2023-02-19T12:49:41.300Z,2.10
2023-02-19T12:52:26.932Z,2.60
2023-02-19T12:54:55.977Z,3.60
2023-02-19T12:57:34.575Z,1.67
2023-02-19T13:00:18.032Z,2.67
2023-02-19T13:02:54.502Z,2.03
2023-02-19T13:05:28.060Z,2.27
2023-02-19T13:07:58.339Z,0.90
2023-02-19T13:10:38.322Z,3.83
2023-02-19T13:13:36.374Z,4.67
2023-02-19T13:16:10.498Z,1.53
2023-02-19T13:18:42.377Z,2.27
2023-02-19T13:21:10.178Z,1.80
2023-02-19T13:23:58.076Z,3.37
2023-02-19T13:26:55.043Z,3.37
2023-02-19T13:29:47.351Z,6.00
2023-02-19T13:32:44.010Z,2.53
2023-02-19T13:35:22.249Z,2.50
2023-02-19T13:37:49.988Z,2.07
2023-02-19T13:40:25.623Z,2.00
2023-02-19T13:42:57.430Z,3.47
2023-02-19T13:45:28.184Z,4.10
2023-02-19T13:47:56.529Z,4.43
2023-02-19T13:50:25.421Z,3.63
2023-02-19T13:52:58.822Z,3.90
2023-02-19T13:55:55.663Z,4.53
2023-02-19T13:58:37.127Z,7.97
2023-02-19T14:01:12.080Z,2.93
2023-02-19T14:03:56.172Z,4.90
2023-02-19T14:06:24.063Z,4.23
2023-02-19T14:08:58.740Z,3.37
2023-02-19T14:11:44.923Z,2.23
2023-02-19T14:14:40.910Z,5.27
2023-02-19T14:19:54.864Z,3.50
2023-02-19T14:22:47.563Z,18.73
2023-02-19T14:25:45.105Z,13.70
2023-02-19T14:28:19.672Z,12.07
2023-02-19T14:31:05.454Z,8.07
2023-02-19T14:33:38.353Z,7.93
2023-02-19T14:36:24.462Z,4.87
2023-02-19T14:39:12.710Z,3.83
2023-02-19T14:41:41.525Z,6.43
2023-02-19T14:44:20.813Z,7.30
2023-02-19T14:47:18.245Z,8.30
2023-02-19T14:49:48.179Z,2.80
2023-02-19T14:52:21.529Z,7.13
2023-02-19T14:55:09.660Z,15.00
2023-02-19T14:57:40.117Z,9.57
2023-02-19T15:00:22.912Z,12.00
2023-02-19T15:03:00.050Z,20.10
2023-02-19T15:05:37.550Z,15.03
2023-02-19T15:08:09.713Z,7.90
2023-02-19T15:10:37.097Z,4.23
2023-02-19T15:13:08.699Z,12.30
2023-02-19T15:15:41.169Z,6.60
2023-02-19T15:18:08.615Z,9.93
2023-02-19T15:20:37.230Z,4.03
2023-02-19T15:23:06.303Z,35.07
2023-02-19T15:25:39.821Z,15.07
2023-02-19T15:28:42.690Z,6.83
2023-02-19T15:31:15.060Z,13.93
2023-02-19T15:33:50.351Z,3.27
2023-02-19T15:36:25.628Z,3.07
2023-02-19T15:38:57.248Z,3.50
2023-02-19T15:41:26.681Z,2.33
2023-02-19T15:44:15.604Z,3.63
2023-02-19T15:46:43.174Z,4.13
2023-02-19T15:49:13.828Z,4.13
2023-02-19T15:51:51.011Z,1.73
2023-02-19T15:54:31.346Z,5.33
2023-02-19T15:57:01.282Z,19.00
2023-02-19T15:59:48.105Z,10.80
2023-02-19T16:02:15.549Z,10.30
2023-02-19T16:04:43.985Z,22.70
2023-02-19T16:07:32.497Z,17.90
2023-02-19T16:10:20.715Z,13.50
2023-02-19T16:13:01.522Z,12.83
2023-02-19T16:15:29.728Z,28.83
2023-02-19T16:17:57.357Z,17.63
2023-02-19T16:20:27.085Z,4.53
2023-02-19T16:23:04.534Z,19.20
2023-02-19T16:25:37.844Z,17.93
2023-02-19T16:28:36.016Z,14.70
2023-02-19T16:31:10.911Z,9.00
2023-02-19T16:33:40.254Z,10.60
2023-02-19T16:36:22.756Z,7.60
2023-02-19T16:39:08.686Z,9.30
2023-02-19T16:41:48.082Z,5.47
2023-02-19T16:44:21.600Z,7.23
2023-02-19T16:46:54.007Z,30.57
2023-02-19T16:49:21.920Z,7.30
2023-02-19T16:51:49.216Z,8.47
2023-02-19T16:54:16.645Z,14.10
2023-02-19T16:56:44.065Z,9.83
2023-02-19T16:59:11.400Z,6.40
2023-02-19T17:01:38.732Z,14.23
2023-02-19T17:04:08.725Z,3.27
2023-02-19T17:06:38.360Z,20.73
2023-02-19T17:09:06.879Z,7.30
2023-02-19T17:11:34.290Z,4.53
2023-02-19T17:14:02.535Z,12.17
2023-02-19T17:16:32.450Z,7.90
2023-02-19T17:18:59.824Z,2.93
2023-02-19T17:21:28.860Z,11.87
2023-02-19T17:23:57.431Z,3.87
2023-02-19T17:26:27.244Z,6.07
2023-02-19T17:28:58.515Z,6.57
2023-02-19T17:31:26.048Z,2.57
2023-02-19T17:33:53.534Z,4.00
2023-02-19T17:36:30.965Z,4.63
2023-02-19T17:38:59.306Z,4.03
2023-02-19T17:41:26.782Z,10.10
2023-02-19T17:43:54.158Z,7.67
2023-02-19T17:46:23.495Z,2.63
2023-02-19T17:48:51.072Z,4.07
2023-02-19T17:51:18.466Z,4.53
2023-02-19T17:53:46.844Z,3.10
2023-02-19T17:56:25.769Z,4.10
2023-02-19T17:58:53.657Z,5.33
2023-02-19T18:01:21.446Z,5.37
2023-02-19T18:03:48.942Z,6.77
2023-02-19T18:06:16.433Z,5.77
2023-02-19T18:08:48.427Z,3.43
2023-02-19T18:11:15.910Z,5.17
2023-02-19T18:13:43.376Z,3.40
2023-02-19T18:16:10.849Z,7.03
2023-02-19T18:18:38.517Z,5.47
2023-02-19T18:21:09.700Z,3.93
2023-02-19T18:23:37.478Z,9.50
2023-02-19T18:26:07.733Z,11.07
2023-02-19T18:28:36.072Z,12.93
2023-02-19T18:31:03.840Z,10.37
2023-02-19T18:33:31.290Z,15.07
2023-02-19T18:35:58.782Z,18.07
2023-02-19T18:38:26.492Z,8.47
2023-02-19T18:40:53.876Z,17.13
2023-02-19T18:43:21.237Z,10.40
2023-02-19T18:45:48.639Z,18.13
2023-02-19T18:48:16.007Z,10.37
2023-02-19T18:50:43.420Z,7.60
2023-02-19T18:53:10.773Z,10.23
2023-02-19T18:55:38.086Z,10.70
2023-02-19T18:58:05.521Z,12.60
2023-02-19T19:00:32.872Z,12.60
2023-02-19T19:03:00.402Z,5.73
2023-02-19T19:05:27.906Z,8.77
2023-02-19T19:07:56.707Z,6.63
2023-02-19T19:10:24.483Z,6.33
2023-02-19T19:12:51.957Z,5.13
2023-02-19T19:15:19.473Z,11.83
2023-02-19T19:17:47.815Z,15.73
2023-02-19T19:20:19.299Z,9.53
2023-02-19T19:22:48.871Z,13.97
2023-02-19T19:25:16.606Z,20.20
2023-02-19T19:27:43.993Z,29.67
2023-02-19T19:30:11.999Z,9.97
2023-02-19T19:32:39.990Z,9.63
2023-02-19T19:35:07.788Z,15.90
2023-02-19T19:37:35.260Z,10.63
2023-02-19T19:40:04.281Z,19.53
2023-02-19T19:42:31.720Z,21.57
2023-02-19T19:44:59.332Z,10.27
2023-02-19T19:47:27.031Z,35.57
2023-02-19T19:49:54.456Z,9.40
2023-02-19T19:52:21.843Z,14.30
2023-02-19T19:54:54.174Z,15.10
2023-02-19T19:57:21.967Z,11.80
2023-02-19T19:59:51.422Z,9.17
2023-02-19T20:02:19.287Z,14.23
2023-02-19T20:04:46.733Z,16.37
2023-02-19T20:07:14.205Z,6.43
2023-02-19T20:09:41.670Z,5.40
2023-02-19T20:12:09.259Z,7.23
2023-02-19T20:14:36.705Z,11.10
2023-02-19T20:17:04.241Z,10.83
2023-02-19T20:19:31.670Z,7.70
2023-02-19T20:21:59.167Z,13.83
2023-02-19T20:24:28.842Z,5.13
2023-02-19T20:27:00.681Z,6.90
2023-02-19T20:29:29.755Z,8.80
2023-02-19T20:32:00.110Z,4.97
2023-02-19T20:34:27.894Z,7.00
2023-02-19T20:36:55.771Z,8.13
2023-02-19T20:39:23.333Z,10.90
2023-02-19T20:41:51.800Z,9.17
2023-02-19T20:44:19.585Z,7.60
2023-02-19T20:46:48.655Z,13.23
2023-02-19T20:49:16.932Z,8.33
2023-02-19T20:51:45.923Z,27.43
2023-02-19T20:54:13.430Z,11.50
2023-02-19T20:57:00.562Z,26.03
2023-02-19T20:59:31.051Z,24.63
2023-02-19T21:01:59.227Z,7.87
2023-02-19T21:04:26.826Z,18.87
2023-02-19T21:06:54.238Z,14.93
2023-02-19T21:09:22.546Z,21.27
2023-02-19T21:11:50.199Z,20.13
2023-02-19T21:14:17.722Z,13.97
2023-02-19T21:16:45.380Z,20.93
2023-02-19T21:19:12.717Z,23.30
2023-02-19T21:21:40.664Z,20.10
2023-02-19T21:24:09.710Z,10.67
2023-02-19T21:26:38.577Z,7.90
2023-02-19T21:29:06.572Z,6.17
2023-02-19T21:31:41.587Z,12.20
2023-02-19T21:34:09.587Z,15.70
2023-02-19T21:36:37.102Z,6.90
2023-02-19T21:39:05.275Z,12.03
2023-02-19T21:41:32.612Z,12.57
2023-02-19T21:44:00.089Z,10.40
2023-02-19T21:46:27.924Z,10.87
2023-02-19T21:48:56.244Z,6.87
2023-02-19T21:51:35.885Z,11.57
2023-02-19T21:54:03.811Z,9.27
2023-02-19T21:56:33.157Z,6.87
2023-02-19T21:59:01.348Z,9.33
2023-02-19T22:01:33.792Z,7.20
2023-02-19T22:04:01.473Z,10.33
2023-02-19T22:06:30.088Z,9.83
2023-02-19T22:08:57.755Z,5.63
2023-02-19T22:11:25.221Z,10.37
2023-02-19T22:13:52.699Z,6.70
2023-02-19T22:16:20.198Z,5.83
2023-02-19T22:18:48.928Z,9.07
2023-02-19T22:21:17.067Z,7.50
2023-02-19T22:23:48.376Z,9.73
2023-02-19T22:26:29.374Z,8.27
2023-02-19T22:28:57.098Z,4.17
2023-02-19T22:31:25.242Z,5.93
2023-02-19T22:33:53.216Z,7.07
2023-02-19T22:36:22.474Z,7.87
2023-02-19T22:38:49.855Z,5.73
2023-02-19T22:41:17.892Z,6.43
2023-02-19T22:43:45.247Z,7.27
2023-02-19T22:46:14.887Z,7.60
2023-02-19T22:48:42.961Z,6.60
2023-02-19T22:51:13.348Z,4.73
2023-02-19T22:53:47.788Z,7.50
2023-02-19T22:56:15.723Z,4.67
2023-02-19T22:58:43.492Z,6.00
2023-02-19T23:01:11.741Z,5.90
2023-02-19T23:03:53.648Z,7.07
2023-02-19T23:06:26.024Z,16.57
2023-02-19T23:08:54.307Z,40.90
2023-02-19T23:11:23.559Z,10.10
2023-02-19T23:13:51.002Z,40.23
2023-02-19T23:16:18.446Z,24.43
2023-02-19T23:18:45.824Z,12.93
2023-02-19T23:21:13.317Z,9.47
2023-02-19T23:23:44.118Z,15.80
2023-02-19T23:26:12.244Z,11.20
2023-02-19T23:28:40.607Z,22.97
2023-02-19T23:31:08.103Z,13.20
2023-02-19T23:33:35.478Z,6.77
2023-02-19T23:36:02.753Z,16.13
2023-02-19T23:38:30.132Z,7.93
2023-02-19T23:40:57.432Z,13.80
2023-02-19T23:43:24.790Z,19.83
2023-02-19T23:45:52.241Z,6.73
2023-02-19T23:48:19.574Z,16.30
2023-02-19T23:50:46.891Z,22.67
2023-02-19T23:53:14.201Z,48.80
2023-02-19T23:55:41.487Z,24.50
2023-02-19T23:58:08.939Z,30.00
